EGHQEGTE

Guest
Details From EGHQ - Newquay
To EGTE - Exeter
Flight Number -
Tags generated
Created
Modified
Stats Distance 63 nm / 117 km
Max Altitude 1,200 ft / 366 m
Waypoints 3
Social Downloads 1
Likes 0
Share VATSIM

Download

Looking for another format? Having issues loading an existing format? Contact us
Advertisement - Login to hide

Notes

Basic altitude profile: - Ascent Rate: 2500ft/min - Ascent Speed: 250kts - Cruise Altitude: 1200ft - Cruise Speed: 420kts - Descent Rate: 1500ft/min - Descent Speed: 250kts

Route

EGHQ DEVOM EGTE

ID Type Via Altitude Latitude Longitude Leg Dist Tot Dist Heading (true) Name
O EGHQ APT - 0 ft / 0 m 50.44076˚ -4.99533˚ - 0 nm - Newquay
DEVOM FIX - 1,200 ft / 366 m 50.72167˚ -3.75528˚ 50 nm 50 nm 70° / 71° -
O EGTE APT - 0 ft / 0 m 50.73426˚ -3.41400˚ 12 nm 63 nm 87° / 87° Exeter

Altitude Profile

Advertisement - Login to hide

EGHQ

Details ICAO EGHQ
Name Newquay
Region United Kingdom
Timezone Europe/London (UTC+0.0)
Stats Elevation 389 ft / 119 m (AMSL)
Location 50.440759° -4.995334°
Runways 1
Magnetic Variation 2.047° W

METAR

EGHQ 111120Z 01022KT 9999 BKN026 04/M01 Q0989

Decode

TAF

Not found

Departure Runways

ID Width Length Bearing (true) Bearing (mag) Surface Threshold Offset Overrun Length
12 148 ft / 45 m 9,006 ft / 2,745 m 120.58° 122.63° Asphalt 0 ft / 0 m 0 ft / 0 m
30 148 ft / 45 m 9,006 ft / 2,745 m 300.60° 302.65° Asphalt 1,014 ft / 309 m 0 ft / 0 m

EGTE

Details ICAO EGTE (EXT)
Name Exeter
Region United Kingdom
Timezone Europe/London (UTC+0.0)
Stats Elevation 102 ft / 31 m (AMSL)
Location 50.734260° -3.414000°
Runways 1
Magnetic Variation 1.515° W

METAR

EGTE 111120Z 35014KT 320V020 9999 FEW015 SCT020 03/00 Q0986

Decode

TAF

Not found

Destination Runways

ID Width Length Bearing (true) Bearing (mag) Surface Threshold Offset Overrun Length
08 151 ft / 46 m 6,666 ft / 2,032 m 76.09° 77.60° Asphalt 0 ft / 0 m 0 ft / 0 m
26 151 ft / 46 m 6,666 ft / 2,032 m 256.11° 257.62° Asphalt 0 ft / 0 m 0 ft / 0 m

Approach Navaids

Runway Type Ident Frequency Range Bearing (true) Bearing (mag) Slope Elevation
08 Localiser IET 109.90 MHz 18 nm / 33 km 76.11° 77.63° - 102 ft / 31 m (AMSL)
08 Glidescope IET 109.90 MHz 10 nm / 19 km 76.10° 77.61° 3.00° 50 ft / 15 m (AMSL)
08 DME IET 109.90 MHz 18 nm / 33 km - - - 102 ft / 31 m (AMSL)
26 Localiser IXR 109.90 MHz 18 nm / 33 km 256.10° 257.61° - 102 ft / 31 m (AMSL)
26 Glidescope IXR 109.90 MHz 10 nm / 19 km 256.10° 257.61° 3.50° 58 ft / 18 m (AMSL)
26 DME IXR 109.90 MHz 18 nm / 33 km - - - 102 ft / 31 m (AMSL)

Popular Alternatives